sensor_id;sensor_type;location;lat;lon;timestamp;P1;durP1;ratioP1;P2;durP2;ratioP2
38715;SDS011;24833;49.324;8.694;2023-06-26T00:01:40;3.72;;;2.80;;
38715;SDS011;24833;49.324;8.694;2023-06-26T00:04:08;5.30;;;3.20;;
38715;SDS011;24833;49.324;8.694;2023-06-26T00:06:40;3.35;;;3.05;;
38715;SDS011;24833;49.324;8.694;2023-06-26T00:09:08;3.13;;;2.83;;
38715;SDS011;24833;49.324;8.694;2023-06-26T00:11:35;2.90;;;2.70;;
38715;SDS011;24833;49.324;8.694;2023-06-26T00:14:02;5.38;;;3.38;;
38715;SDS011;24833;49.324;8.694;2023-06-26T00:16:29;3.35;;;3.05;;
38715;SDS011;24833;49.324;8.694;2023-06-26T00:18:57;3.85;;;3.40;;
38715;SDS011;24833;49.324;8.694;2023-06-26T00:21:25;3.17;;;2.83;;
38715;SDS011;24833;49.324;8.694;2023-06-26T00:23:54;3.08;;;2.83;;
38715;SDS011;24833;49.324;8.694;2023-06-26T00:26:21;4.63;;;3.33;;
38715;SDS011;24833;49.324;8.694;2023-06-26T00:28:48;4.20;;;3.20;;
38715;SDS011;24833;49.324;8.694;2023-06-26T00:31:15;3.88;;;3.15;;
38715;SDS011;24833;49.324;8.694;2023-06-26T00:33:42;3.50;;;3.20;;
38715;SDS011;24833;49.324;8.694;2023-06-26T00:36:09;4.55;;;2.95;;
38715;SDS011;24833;49.324;8.694;2023-06-26T00:38:36;5.35;;;3.35;;
38715;SDS011;24833;49.324;8.694;2023-06-26T00:41:05;3.17;;;2.83;;
38715;SDS011;24833;49.324;8.694;2023-06-26T00:43:38;2.75;;;2.55;;
38715;SDS011;24833;49.324;8.694;2023-06-26T00:46:09;4.07;;;2.88;;
38715;SDS011;24833;49.324;8.694;2023-06-26T00:48:41;3.42;;;2.90;;
38715;SDS011;24833;49.324;8.694;2023-06-26T00:51:11;4.35;;;2.97;;
38715;SDS011;24833;49.324;8.694;2023-06-26T00:53:39;3.03;;;2.83;;
38715;SDS011;24833;49.324;8.694;2023-06-26T00:56:06;3.15;;;2.83;;
38715;SDS011;24833;49.324;8.694;2023-06-26T00:58:35;3.47;;;3.17;;
38715;SDS011;24833;49.324;8.694;2023-06-26T01:01:02;3.88;;;3.40;;
38715;SDS011;24833;49.324;8.694;2023-06-26T01:03:32;6.95;;;3.28;;
38715;SDS011;24833;49.324;8.694;2023-06-26T01:05:59;4.03;;;3.47;;
38715;SDS011;24833;49.324;8.694;2023-06-26T01:08:27;3.88;;;3.50;;
38715;SDS011;24833;49.324;8.694;2023-06-26T01:10:55;3.50;;;3.20;;
38715;SDS011;24833;49.324;8.694;2023-06-26T01:13:23;3.55;;;3.25;;
38715;SDS011;24833;49.324;8.694;2023-06-26T01:15:51;3.72;;;3.15;;
38715;SDS011;24833;49.324;8.694;2023-06-26T01:18:19;4.00;;;3.40;;
38715;SDS011;24833;49.324;8.694;2023-06-26T01:20:46;3.47;;;3.17;;
38715;SDS011;24833;49.324;8.694;2023-06-26T01:23:16;3.50;;;3.20;;
38715;SDS011;24833;49.324;8.694;2023-06-26T01:28:46;3.25;;;2.95;;
38715;SDS011;24833;49.324;8.694;2023-06-26T01:31:15;4.55;;;3.55;;
38715;SDS011;24833;49.324;8.694;2023-06-26T01:33:43;5.30;;;3.10;;
38715;SDS011;24833;49.324;8.694;2023-06-26T01:36:11;7.05;;;3.53;;
38715;SDS011;24833;49.324;8.694;2023-06-26T01:38:39;5.15;;;3.13;;
38715;SDS011;24833;49.324;8.694;2023-06-26T01:41:06;3.20;;;2.83;;
38715;SDS011;24833;49.324;8.694;2023-06-26T01:43:50;3.05;;;2.83;;
38715;SDS011;24833;49.324;8.694;2023-06-26T01:46:43;2.72;;;2.53;;
38715;SDS011;24833;49.324;8.694;2023-06-26T01:49:49;3.92;;;3.25;;
38715;SDS011;24833;49.324;8.694;2023-06-26T01:52:21;4.13;;;3.08;;
38715;SDS011;24833;49.324;8.694;2023-06-26T01:55:05;5.82;;;3.22;;
38715;SDS011;24833;49.324;8.694;2023-06-26T01:57:47;3.35;;;2.78;;
38715;SDS011;24833;49.324;8.694;2023-06-26T02:00:15;4.07;;;3.55;;
38715;SDS011;24833;49.324;8.694;2023-06-26T02:02:46;4.15;;;3.70;;
38715;SDS011;24833;49.324;8.694;2023-06-26T02:05:14;3.28;;;2.97;;
38715;SDS011;24833;49.324;8.694;2023-06-26T02:07:41;3.40;;;3.10;;
38715;SDS011;24833;49.324;8.694;2023-06-26T02:10:10;3.42;;;3.13;;
38715;SDS011;24833;49.324;8.694;2023-06-26T02:12:38;4.18;;;3.70;;
38715;SDS011;24833;49.324;8.694;2023-06-26T02:15:06;4.28;;;3.38;;
38715;SDS011;24833;49.324;8.694;2023-06-26T02:17:34;5.15;;;3.45;;
38715;SDS011;24833;49.324;8.694;2023-06-26T02:20:01;4.32;;;3.67;;
38715;SDS011;24833;49.324;8.694;2023-06-26T02:22:29;4.10;;;3.67;;
38715;SDS011;24833;49.324;8.694;2023-06-26T02:24:56;5.28;;;3.80;;
38715;SDS011;24833;49.324;8.694;2023-06-26T02:27:24;4.55;;;3.70;;
38715;SDS011;24833;49.324;8.694;2023-06-26T02:29:52;4.00;;;3.30;;
38715;SDS011;24833;49.324;8.694;2023-06-26T02:32:19;4.57;;;3.95;;
38715;SDS011;24833;49.324;8.694;2023-06-26T02:34:48;4.50;;;4.07;;
38715;SDS011;24833;49.324;8.694;2023-06-26T02:37:18;6.45;;;3.50;;
38715;SDS011;24833;49.324;8.694;2023-06-26T02:39:46;5.20;;;4.28;;
38715;SDS011;24833;49.324;8.694;2023-06-26T02:42:13;4.30;;;3.80;;
38715;SDS011;24833;49.324;8.694;2023-06-26T02:44:40;5.78;;;3.88;;
38715;SDS011;24833;49.324;8.694;2023-06-26T02:47:08;4.47;;;4.05;;
38715;SDS011;24833;49.324;8.694;2023-06-26T02:49:39;3.60;;;3.28;;
38715;SDS011;24833;49.324;8.694;2023-06-26T02:52:06;4.13;;;3.72;;
38715;SDS011;24833;49.324;8.694;2023-06-26T02:54:33;6.00;;;3.63;;
38715;SDS011;24833;49.324;8.694;2023-06-26T02:57:03;4.90;;;3.63;;
38715;SDS011;24833;49.324;8.694;2023-06-26T02:59:32;4.40;;;3.90;;
38715;SDS011;24833;49.324;8.694;2023-06-26T03:01:59;3.72;;;3.40;;
38715;SDS011;24833;49.324;8.694;2023-06-26T03:04:34;5.68;;;3.58;;
38715;SDS011;24833;49.324;8.694;2023-06-26T03:07:04;4.85;;;3.70;;
38715;SDS011;24833;49.324;8.694;2023-06-26T03:09:31;4.25;;;3.58;;
38715;SDS011;24833;49.324;8.694;2023-06-26T03:11:58;4.03;;;3.65;;
38715;SDS011;24833;49.324;8.694;2023-06-26T03:14:26;5.38;;;3.88;;
38715;SDS011;24833;49.324;8.694;2023-06-26T03:16:53;5.72;;;3.83;;
38715;SDS011;24833;49.324;8.694;2023-06-26T03:19:25;5.80;;;3.58;;
38715;SDS011;24833;49.324;8.694;2023-06-26T03:22:12;4.60;;;3.85;;
38715;SDS011;24833;49.324;8.694;2023-06-26T03:24:40;7.55;;;3.90;;
38715;SDS011;24833;49.324;8.694;2023-06-26T03:27:07;5.50;;;4.68;;
38715;SDS011;24833;49.324;8.694;2023-06-26T03:29:36;4.85;;;3.95;;
38715;SDS011;24833;49.324;8.694;2023-06-26T03:32:03;4.93;;;4.18;;
38715;SDS011;24833;49.324;8.694;2023-06-26T03:34:31;4.75;;;4.25;;
38715;SDS011;24833;49.324;8.694;2023-06-26T03:36:58;5.18;;;4.68;;
38715;SDS011;24833;49.324;8.694;2023-06-26T03:39:25;4.57;;;4.18;;
38715;SDS011;24833;49.324;8.694;2023-06-26T03:41:52;5.32;;;4.60;;
38715;SDS011;24833;49.324;8.694;2023-06-26T03:44:22;5.55;;;4.47;;
38715;SDS011;24833;49.324;8.694;2023-06-26T03:46:49;6.00;;;4.75;;
38715;SDS011;24833;49.324;8.694;2023-06-26T03:49:16;7.10;;;4.63;;
38715;SDS011;24833;49.324;8.694;2023-06-26T03:51:44;5.38;;;4.70;;
38715;SDS011;24833;49.324;8.694;2023-06-26T03:54:13;5.40;;;4.57;;
38715;SDS011;24833;49.324;8.694;2023-06-26T03:56:41;5.80;;;5.15;;
38715;SDS011;24833;49.324;8.694;2023-06-26T03:59:09;5.90;;;5.30;;
38715;SDS011;24833;49.324;8.694;2023-06-26T04:01:37;6.32;;;4.75;;
38715;SDS011;24833;49.324;8.694;2023-06-26T04:04:05;6.07;;;4.88;;
38715;SDS011;24833;49.324;8.694;2023-06-26T04:06:32;5.35;;;4.85;;
38715;SDS011;24833;49.324;8.694;2023-06-26T04:09:00;6.03;;;5.32;;
38715;SDS011;24833;49.324;8.694;2023-06-26T04:11:26;6.32;;;4.90;;
38715;SDS011;24833;49.324;8.694;2023-06-26T04:13:54;6.10;;;4.78;;
38715;SDS011;24833;49.324;8.694;2023-06-26T04:16:21;5.93;;;4.95;;
38715;SDS011;24833;49.324;8.694;2023-06-26T04:18:51;5.25;;;4.75;;
38715;SDS011;24833;49.324;8.694;2023-06-26T04:21:19;6.30;;;5.18;;
38715;SDS011;24833;49.324;8.694;2023-06-26T04:23:46;6.00;;;5.05;;
38715;SDS011;24833;49.324;8.694;2023-06-26T04:26:14;8.07;;;4.95;;
38715;SDS011;24833;49.324;8.694;2023-06-26T04:28:41;8.48;;;5.13;;
38715;SDS011;24833;49.324;8.694;2023-06-26T04:31:09;5.38;;;4.78;;
38715;SDS011;24833;49.324;8.694;2023-06-26T04:33:36;6.93;;;5.20;;
38715;SDS011;24833;49.324;8.694;2023-06-26T04:36:08;6.47;;;5.60;;
38715;SDS011;24833;49.324;8.694;2023-06-26T04:38:35;6.53;;;5.32;;
38715;SDS011;24833;49.324;8.694;2023-06-26T04:41:02;5.40;;;4.70;;
38715;SDS011;24833;49.324;8.694;2023-06-26T04:43:29;8.10;;;5.18;;
38715;SDS011;24833;49.324;8.694;2023-06-26T04:45:56;5.53;;;5.00;;
38715;SDS011;24833;49.324;8.694;2023-06-26T04:48:23;5.75;;;5.25;;
38715;SDS011;24833;49.324;8.694;2023-06-26T04:50:51;5.38;;;4.53;;
38715;SDS011;24833;49.324;8.694;2023-06-26T04:53:20;5.93;;;5.32;;
38715;SDS011;24833;49.324;8.694;2023-06-26T04:55:49;6.32;;;4.80;;
38715;SDS011;24833;49.324;8.694;2023-06-26T04:58:18;5.55;;;5.03;;
38715;SDS011;24833;49.324;8.694;2023-06-26T05:00:46;7.25;;;5.63;;
38715;SDS011;24833;49.324;8.694;2023-06-26T05:03:13;6.50;;;5.80;;
38715;SDS011;24833;49.324;8.694;2023-06-26T05:05:47;8.23;;;5.63;;
38715;SDS011;24833;49.324;8.694;2023-06-26T05:08:18;6.10;;;4.95;;
38715;SDS011;24833;49.324;8.694;2023-06-26T05:10:49;6.07;;;5.43;;
38715;SDS011;24833;49.324;8.694;2023-06-26T05:13:16;8.48;;;5.30;;
38715;SDS011;24833;49.324;8.694;2023-06-26T05:15:46;7.85;;;6.13;;
38715;SDS011;24833;49.324;8.694;2023-06-26T05:18:13;6.18;;;5.53;;
38715;SDS011;24833;49.324;8.694;2023-06-26T05:20:40;5.28;;;4.72;;
38715;SDS011;24833;49.324;8.694;2023-06-26T05:23:08;6.75;;;5.57;;
38715;SDS011;24833;49.324;8.694;2023-06-26T05:25:38;8.25;;;5.95;;
38715;SDS011;24833;49.324;8.694;2023-06-26T05:28:06;5.80;;;4.65;;
38715;SDS011;24833;49.324;8.694;2023-06-26T05:30:36;5.65;;;5.05;;
38715;SDS011;24833;49.324;8.694;2023-06-26T05:33:04;7.10;;;5.13;;
38715;SDS011;24833;49.324;8.694;2023-06-26T05:35:32;8.93;;;5.53;;
38715;SDS011;24833;49.324;8.694;2023-06-26T05:38:02;5.18;;;4.57;;
38715;SDS011;24833;49.324;8.694;2023-06-26T05:40:29;6.50;;;5.68;;
38715;SDS011;24833;49.324;8.694;2023-06-26T05:42:57;4.68;;;4.22;;
38715;SDS011;24833;49.324;8.694;2023-06-26T05:45:24;7.97;;;4.97;;
38715;SDS011;24833;49.324;8.694;2023-06-26T05:47:51;5.03;;;4.15;;
38715;SDS011;24833;49.324;8.694;2023-06-26T05:50:18;5.80;;;5.03;;
38715;SDS011;24833;49.324;8.694;2023-06-26T05:52:46;6.07;;;4.97;;
38715;SDS011;24833;49.324;8.694;2023-06-26T05:55:14;5.10;;;4.55;;
38715;SDS011;24833;49.324;8.694;2023-06-26T05:57:41;5.80;;;4.63;;
38715;SDS011;24833;49.324;8.694;2023-06-26T06:00:09;6.32;;;5.10;;
38715;SDS011;24833;49.324;8.694;2023-06-26T06:02:41;6.05;;;5.45;;
38715;SDS011;24833;49.324;8.694;2023-06-26T06:05:09;6.38;;;5.32;;
38715;SDS011;24833;49.324;8.694;2023-06-26T06:07:36;5.18;;;4.68;;
38715;SDS011;24833;49.324;8.694;2023-06-26T06:10:04;5.55;;;4.75;;
38715;SDS011;24833;49.324;8.694;2023-06-26T06:12:31;6.90;;;4.72;;
38715;SDS011;24833;49.324;8.694;2023-06-26T06:15:01;5.55;;;4.35;;
38715;SDS011;24833;49.324;8.694;2023-06-26T06:17:28;5.18;;;4.60;;
38715;SDS011;24833;49.324;8.694;2023-06-26T06:19:55;5.20;;;4.50;;
38715;SDS011;24833;49.324;8.694;2023-06-26T06:22:22;4.90;;;4.50;;
38715;SDS011;24833;49.324;8.694;2023-06-26T06:24:50;6.30;;;4.57;;
38715;SDS011;24833;49.324;8.694;2023-06-26T06:27:17;7.85;;;4.57;;
38715;SDS011;24833;49.324;8.694;2023-06-26T06:29:45;5.63;;;4.97;;
38715;SDS011;24833;49.324;8.694;2023-06-26T06:32:12;8.75;;;5.75;;
38715;SDS011;24833;49.324;8.694;2023-06-26T06:34:39;4.90;;;4.43;;
38715;SDS011;24833;49.324;8.694;2023-06-26T06:37:06;4.85;;;4.15;;
38715;SDS011;24833;49.324;8.694;2023-06-26T06:39:33;10.00;;;4.93;;
38715;SDS011;24833;49.324;8.694;2023-06-26T06:42:00;4.97;;;4.47;;
38715;SDS011;24833;49.324;8.694;2023-06-26T06:44:27;5.38;;;4.85;;
38715;SDS011;24833;49.324;8.694;2023-06-26T06:46:56;5.95;;;4.95;;
38715;SDS011;24833;49.324;8.694;2023-06-26T06:49:23;6.30;;;5.07;;
38715;SDS011;24833;49.324;8.694;2023-06-26T06:51:50;5.20;;;4.70;;
38715;SDS011;24833;49.324;8.694;2023-06-26T06:54:18;5.47;;;4.93;;
38715;SDS011;24833;49.324;8.694;2023-06-26T06:56:46;5.60;;;4.68;;
38715;SDS011;24833;49.324;8.694;2023-06-26T06:59:13;6.43;;;5.00;;
38715;SDS011;24833;49.324;8.694;2023-06-26T07:01:40;6.20;;;5.05;;
38715;SDS011;24833;49.324;8.694;2023-06-26T07:04:07;6.97;;;4.82;;
38715;SDS011;24833;49.324;8.694;2023-06-26T07:06:34;5.25;;;4.63;;
38715;SDS011;24833;49.324;8.694;2023-06-26T07:09:01;9.18;;;4.93;;
38715;SDS011;24833;49.324;8.694;2023-06-26T07:11:29;8.48;;;5.65;;
38715;SDS011;24833;49.324;8.694;2023-06-26T07:13:56;5.88;;;5.10;;
38715;SDS011;24833;49.324;8.694;2023-06-26T07:16:23;6.07;;;5.40;;
38715;SDS011;24833;49.324;8.694;2023-06-26T07:18:51;6.53;;;4.80;;
38715;SDS011;24833;49.324;8.694;2023-06-26T07:21:18;7.38;;;5.35;;
38715;SDS011;24833;49.324;8.694;2023-06-26T07:23:45;9.85;;;5.05;;
38715;SDS011;24833;49.324;8.694;2023-06-26T07:26:13;5.20;;;4.70;;
38715;SDS011;24833;49.324;8.694;2023-06-26T07:28:41;5.70;;;5.10;;
38715;SDS011;24833;49.324;8.694;2023-06-26T07:31:08;6.45;;;4.88;;
38715;SDS011;24833;49.324;8.694;2023-06-26T07:33:35;5.35;;;4.85;;
38715;SDS011;24833;49.324;8.694;2023-06-26T07:36:02;6.63;;;4.72;;
38715;SDS011;24833;49.324;8.694;2023-06-26T07:38:30;6.05;;;5.10;;
38715;SDS011;24833;49.324;8.694;2023-06-26T07:40:57;5.63;;;5.03;;
38715;SDS011;24833;49.324;8.694;2023-06-26T07:43:24;6.60;;;4.75;;
38715;SDS011;24833;49.324;8.694;2023-06-26T07:45:51;7.78;;;4.93;;
38715;SDS011;24833;49.324;8.694;2023-06-26T07:48:19;6.03;;;4.97;;
38715;SDS011;24833;49.324;8.694;2023-06-26T07:50:46;6.95;;;4.63;;
38715;SDS011;24833;49.324;8.694;2023-06-26T07:53:13;4.88;;;4.35;;
38715;SDS011;24833;49.324;8.694;2023-06-26T07:55:41;7.63;;;5.65;;
38715;SDS011;24833;49.324;8.694;2023-06-26T07:58:08;7.07;;;4.22;;
38715;SDS011;24833;49.324;8.694;2023-06-26T08:00:36;5.75;;;4.68;;
38715;SDS011;24833;49.324;8.694;2023-06-26T08:03:04;5.45;;;4.38;;
38715;SDS011;24833;49.324;8.694;2023-06-26T08:05:34;7.30;;;4.57;;
38715;SDS011;24833;49.324;8.694;2023-06-26T08:08:01;7.28;;;4.50;;
38715;SDS011;24833;49.324;8.694;2023-06-26T08:10:29;4.90;;;3.95;;
38715;SDS011;24833;49.324;8.694;2023-06-26T08:12:56;4.88;;;4.38;;
38715;SDS011;24833;49.324;8.694;2023-06-26T08:15:24;9.80;;;4.35;;
38715;SDS011;24833;49.324;8.694;2023-06-26T08:17:52;5.82;;;4.38;;
38715;SDS011;24833;49.324;8.694;2023-06-26T08:20:19;9.45;;;4.38;;
38715;SDS011;24833;49.324;8.694;2023-06-26T08:22:46;8.70;;;3.80;;
38715;SDS011;24833;49.324;8.694;2023-06-26T08:25:15;3.92;;;3.58;;
38715;SDS011;24833;49.324;8.694;2023-06-26T08:27:42;4.78;;;4.30;;
38715;SDS011;24833;49.324;8.694;2023-06-26T08:30:09;5.07;;;3.63;;
38715;SDS011;24833;49.324;8.694;2023-06-26T08:32:37;4.80;;;4.32;;
38715;SDS011;24833;49.324;8.694;2023-06-26T08:35:04;4.65;;;4.20;;
38715;SDS011;24833;49.324;8.694;2023-06-26T08:37:33;4.85;;;4.40;;
38715;SDS011;24833;49.324;8.694;2023-06-26T08:40:00;5.28;;;4.05;;
38715;SDS011;24833;49.324;8.694;2023-06-26T08:42:27;7.07;;;4.40;;
38715;SDS011;24833;49.324;8.694;2023-06-26T08:44:54;6.38;;;4.20;;
38715;SDS011;24833;49.324;8.694;2023-06-26T08:47:27;5.10;;;3.97;;
38715;SDS011;24833;49.324;8.694;2023-06-26T08:50:00;5.50;;;4.20;;
38715;SDS011;24833;49.324;8.694;2023-06-26T08:52:56;4.47;;;4.07;;
38715;SDS011;24833;49.324;8.694;2023-06-26T08:55:33;4.70;;;4.20;;
38715;SDS011;24833;49.324;8.694;2023-06-26T08:58:04;4.75;;;3.90;;
38715;SDS011;24833;49.324;8.694;2023-06-26T09:00:32;4.38;;;3.50;;
38715;SDS011;24833;49.324;8.694;2023-06-26T09:02:59;4.53;;;4.07;;
38715;SDS011;24833;49.324;8.694;2023-06-26T09:05:27;6.10;;;4.55;;
38715;SDS011;24833;49.324;8.694;2023-06-26T09:07:54;5.65;;;4.28;;
38715;SDS011;24833;49.324;8.694;2023-06-26T09:10:24;4.45;;;4.05;;
38715;SDS011;24833;49.324;8.694;2023-06-26T09:12:51;5.10;;;4.07;;
38715;SDS011;24833;49.324;8.694;2023-06-26T09:15:24;6.55;;;4.30;;
38715;SDS011;24833;49.324;8.694;2023-06-26T09:17:55;4.32;;;3.85;;
38715;SDS011;24833;49.324;8.694;2023-06-26T09:20:25;5.10;;;4.30;;
38715;SDS011;24833;49.324;8.694;2023-06-26T09:22:55;5.30;;;3.60;;
38715;SDS011;24833;49.324;8.694;2023-06-26T09:25:23;5.43;;;4.35;;
38715;SDS011;24833;49.324;8.694;2023-06-26T09:27:50;3.95;;;3.50;;
38715;SDS011;24833;49.324;8.694;2023-06-26T09:30:18;6.65;;;4.50;;
38715;SDS011;24833;49.324;8.694;2023-06-26T09:32:46;4.43;;;4.03;;
38715;SDS011;24833;49.324;8.694;2023-06-26T09:35:13;8.50;;;4.88;;
38715;SDS011;24833;49.324;8.694;2023-06-26T09:37:41;5.68;;;4.40;;
38715;SDS011;24833;49.324;8.694;2023-06-26T09:40:09;10.60;;;4.53;;
38715;SDS011;24833;49.324;8.694;2023-06-26T09:42:37;6.43;;;4.50;;
38715;SDS011;24833;49.324;8.694;2023-06-26T09:45:04;4.70;;;4.05;;
38715;SDS011;24833;49.324;8.694;2023-06-26T09:47:32;4.78;;;4.20;;
38715;SDS011;24833;49.324;8.694;2023-06-26T09:50:02;4.70;;;4.30;;
38715;SDS011;24833;49.324;8.694;2023-06-26T09:52:31;4.75;;;4.20;;
38715;SDS011;24833;49.324;8.694;2023-06-26T09:55:08;3.90;;;3.60;;
38715;SDS011;24833;49.324;8.694;2023-06-26T09:57:37;4.47;;;4.00;;
38715;SDS011;24833;49.324;8.694;2023-06-26T10:00:05;5.32;;;4.53;;
38715;SDS011;24833;49.324;8.694;2023-06-26T10:02:38;8.07;;;4.28;;
38715;SDS011;24833;49.324;8.694;2023-06-26T10:05:05;6.50;;;3.97;;
38715;SDS011;24833;49.324;8.694;2023-06-26T10:07:32;5.05;;;4.25;;
38715;SDS011;24833;49.324;8.694;2023-06-26T10:10:02;5.57;;;3.97;;
38715;SDS011;24833;49.324;8.694;2023-06-26T10:14:59;4.50;;;4.10;;
38715;SDS011;24833;49.324;8.694;2023-06-26T10:17:35;8.15;;;4.30;;
38715;SDS011;24833;49.324;8.694;2023-06-26T10:20:05;5.65;;;3.83;;
38715;SDS011;24833;49.324;8.694;2023-06-26T10:22:37;5.07;;;4.43;;
38715;SDS011;24833;49.324;8.694;2023-06-26T10:25:14;5.55;;;4.40;;
38715;SDS011;24833;49.324;8.694;2023-06-26T10:27:52;5.35;;;4.40;;
38715;SDS011;24833;49.324;8.694;2023-06-26T10:30:28;5.40;;;4.33;;
38715;SDS011;24833;49.324;8.694;2023-06-26T10:32:59;5.75;;;3.63;;
38715;SDS011;24833;49.324;8.694;2023-06-26T10:35:29;3.95;;;3.65;;
38715;SDS011;24833;49.324;8.694;2023-06-26T10:38:01;5.38;;;3.17;;
38715;SDS011;24833;49.324;8.694;2023-06-26T10:40:40;4.75;;;3.72;;
38715;SDS011;24833;49.324;8.694;2023-06-26T10:43:18;5.00;;;4.03;;
38715;SDS011;24833;49.324;8.694;2023-06-26T10:45:48;5.80;;;4.10;;
38715;SDS011;24833;49.324;8.694;2023-06-26T10:48:20;4.70;;;4.30;;
38715;SDS011;24833;49.324;8.694;2023-06-26T10:50:49;6.10;;;3.42;;
38715;SDS011;24833;49.324;8.694;2023-06-26T10:56:00;4.88;;;3.67;;
38715;SDS011;24833;49.324;8.694;2023-06-26T11:03:39;5.55;;;4.28;;
38715;SDS011;24833;49.324;8.694;2023-06-26T11:06:29;4.60;;;3.80;;
38715;SDS011;24833;49.324;8.694;2023-06-26T11:14:39;4.27;;;3.87;;
38715;SDS011;24833;49.324;8.694;2023-06-26T11:17:06;4.40;;;4.03;;
38715;SDS011;24833;49.324;8.694;2023-06-26T11:19:33;4.03;;;3.65;;
38715;SDS011;24833;49.324;8.694;2023-06-26T11:22:04;6.50;;;4.18;;
38715;SDS011;24833;49.324;8.694;2023-06-26T11:24:32;6.45;;;4.00;;
38715;SDS011;24833;49.324;8.694;2023-06-26T11:27:00;4.60;;;4.10;;
38715;SDS011;24833;49.324;8.694;2023-06-26T11:29:29;5.00;;;3.73;;
38715;SDS011;24833;49.324;8.694;2023-06-26T11:32:00;5.85;;;3.88;;
38715;SDS011;24833;49.324;8.694;2023-06-26T11:34:32;5.90;;;3.78;;
38715;SDS011;24833;49.324;8.694;2023-06-26T11:36:59;5.53;;;4.22;;
38715;SDS011;24833;49.324;8.694;2023-06-26T11:39:27;5.75;;;4.35;;
38715;SDS011;24833;49.324;8.694;2023-06-26T11:41:54;4.78;;;4.38;;
38715;SDS011;24833;49.324;8.694;2023-06-26T11:44:22;5.15;;;4.60;;
38715;SDS011;24833;49.324;8.694;2023-06-26T11:46:53;5.60;;;4.03;;
38715;SDS011;24833;49.324;8.694;2023-06-26T11:49:21;4.07;;;3.70;;
38715;SDS011;24833;49.324;8.694;2023-06-26T11:51:52;4.68;;;4.10;;
38715;SDS011;24833;49.324;8.694;2023-06-26T11:56:55;6.47;;;4.03;;
38715;SDS011;24833;49.324;8.694;2023-06-26T11:59:26;3.97;;;3.67;;
38715;SDS011;24833;49.324;8.694;2023-06-26T12:02:09;6.30;;;4.75;;
38715;SDS011;24833;49.324;8.694;2023-06-26T12:04:40;7.65;;;4.68;;
38715;SDS011;24833;49.324;8.694;2023-06-26T12:07:09;7.40;;;4.72;;
38715;SDS011;24833;49.324;8.694;2023-06-26T12:09:41;5.00;;;4.45;;
38715;SDS011;24833;49.324;8.694;2023-06-26T12:12:12;9.13;;;4.38;;
38715;SDS011;24833;49.324;8.694;2023-06-26T12:14:43;6.20;;;4.25;;
38715;SDS011;24833;49.324;8.694;2023-06-26T12:17:11;4.43;;;4.03;;
38715;SDS011;24833;49.324;8.694;2023-06-26T12:19:44;7.15;;;3.90;;
38715;SDS011;24833;49.324;8.694;2023-06-26T12:22:17;4.28;;;3.70;;
38715;SDS011;24833;49.324;8.694;2023-06-26T12:24:45;4.38;;;3.45;;
38715;SDS011;24833;49.324;8.694;2023-06-26T12:27:14;10.65;;;3.90;;
38715;SDS011;24833;49.324;8.694;2023-06-26T12:29:51;5.88;;;3.60;;
38715;SDS011;24833;49.324;8.694;2023-06-26T12:32:26;6.47;;;4.18;;
38715;SDS011;24833;49.324;8.694;2023-06-26T12:34:53;6.60;;;3.88;;
38715;SDS011;24833;49.324;8.694;2023-06-26T12:37:23;4.65;;;3.50;;
38715;SDS011;24833;49.324;8.694;2023-06-26T12:39:54;4.43;;;3.45;;
38715;SDS011;24833;49.324;8.694;2023-06-26T12:42:24;5.93;;;3.05;;
38715;SDS011;24833;49.324;8.694;2023-06-26T12:44:54;5.80;;;2.75;;
38715;SDS011;24833;49.324;8.694;2023-06-26T12:47:24;2.97;;;2.78;;
38715;SDS011;24833;49.324;8.694;2023-06-26T12:49:54;4.20;;;3.03;;
38715;SDS011;24833;49.324;8.694;2023-06-26T12:52:21;4.43;;;2.90;;
38715;SDS011;24833;49.324;8.694;2023-06-26T12:54:52;4.32;;;2.80;;
38715;SDS011;24833;49.324;8.694;2023-06-26T12:57:21;2.95;;;2.72;;
38715;SDS011;24833;49.324;8.694;2023-06-26T12:59:48;6.80;;;3.10;;
38715;SDS011;24833;49.324;8.694;2023-06-26T13:02:15;5.28;;;2.85;;
38715;SDS011;24833;49.324;8.694;2023-06-26T13:04:42;3.20;;;2.90;;
38715;SDS011;24833;49.324;8.694;2023-06-26T13:07:11;3.97;;;2.63;;
38715;SDS011;24833;49.324;8.694;2023-06-26T13:09:39;3.08;;;2.47;;
38715;SDS011;24833;49.324;8.694;2023-06-26T13:12:09;7.57;;;2.88;;
38715;SDS011;24833;49.324;8.694;2023-06-26T13:14:36;5.40;;;3.10;;
38715;SDS011;24833;49.324;8.694;2023-06-26T13:17:04;6.13;;;3.00;;
38715;SDS011;24833;49.324;8.694;2023-06-26T13:19:35;3.17;;;2.88;;
38715;SDS011;24833;49.324;8.694;2023-06-26T13:22:02;3.67;;;2.83;;
38715;SDS011;24833;49.324;8.694;2023-06-26T13:24:29;4.22;;;3.10;;
38715;SDS011;24833;49.324;8.694;2023-06-26T13:26:56;4.00;;;3.35;;
38715;SDS011;24833;49.324;8.694;2023-06-26T13:29:23;3.05;;;2.50;;
38715;SDS011;24833;49.324;8.694;2023-06-26T13:31:50;4.05;;;3.17;;
38715;SDS011;24833;49.324;8.694;2023-06-26T13:34:21;3.88;;;3.47;;
38715;SDS011;24833;49.324;8.694;2023-06-26T13:36:50;5.40;;;3.00;;
38715;SDS011;24833;49.324;8.694;2023-06-26T13:39:17;3.47;;;3.10;;
38715;SDS011;24833;49.324;8.694;2023-06-26T13:41:44;3.45;;;3.08;;
38715;SDS011;24833;49.324;8.694;2023-06-26T13:44:12;4.43;;;3.85;;
38715;SDS011;24833;49.324;8.694;2023-06-26T13:46:59;3.90;;;3.50;;
38715;SDS011;24833;49.324;8.694;2023-06-26T13:49:26;8.95;;;4.07;;
38715;SDS011;24833;49.324;8.694;2023-06-26T13:51:54;5.55;;;4.00;;
38715;SDS011;24833;49.324;8.694;2023-06-26T13:54:21;4.68;;;3.70;;
38715;SDS011;24833;49.324;8.694;2023-06-26T13:56:48;3.55;;;3.25;;
38715;SDS011;24833;49.324;8.694;2023-06-26T13:59:15;5.80;;;3.65;;
38715;SDS011;24833;49.324;8.694;2023-06-26T14:01:47;4.75;;;4.13;;
38715;SDS011;24833;49.324;8.694;2023-06-26T14:04:14;7.32;;;4.53;;
38715;SDS011;24833;49.324;8.694;2023-06-26T14:06:41;4.38;;;3.92;;
38715;SDS011;24833;49.324;8.694;2023-06-26T14:09:08;5.13;;;4.38;;
38715;SDS011;24833;49.324;8.694;2023-06-26T14:11:35;7.88;;;4.60;;
38715;SDS011;24833;49.324;8.694;2023-06-26T14:14:02;6.60;;;5.10;;
38715;SDS011;24833;49.324;8.694;2023-06-26T14:16:30;10.43;;;5.57;;
38715;SDS011;24833;49.324;8.694;2023-06-26T14:18:58;6.00;;;5.38;;
38715;SDS011;24833;49.324;8.694;2023-06-26T14:21:25;5.88;;;4.63;;
38715;SDS011;24833;49.324;8.694;2023-06-26T14:23:57;7.40;;;4.93;;
38715;SDS011;24833;49.324;8.694;2023-06-26T14:26:24;5.75;;;4.40;;
38715;SDS011;24833;49.324;8.694;2023-06-26T14:28:51;7.72;;;5.22;;
38715;SDS011;24833;49.324;8.694;2023-06-26T14:31:18;5.53;;;4.57;;
38715;SDS011;24833;49.324;8.694;2023-06-26T14:33:45;7.70;;;4.32;;
38715;SDS011;24833;49.324;8.694;2023-06-26T14:36:12;3.95;;;3.55;;
38715;SDS011;24833;49.324;8.694;2023-06-26T14:38:39;6.28;;;3.90;;
38715;SDS011;24833;49.324;8.694;2023-06-26T14:41:07;4.88;;;3.85;;
38715;SDS011;24833;49.324;8.694;2023-06-26T14:43:34;6.03;;;3.88;;
38715;SDS011;24833;49.324;8.694;2023-06-26T14:46:02;4.75;;;3.05;;
38715;SDS011;24833;49.324;8.694;2023-06-26T14:48:30;4.75;;;2.85;;
38715;SDS011;24833;49.324;8.694;2023-06-26T14:50:57;4.10;;;2.50;;
38715;SDS011;24833;49.324;8.694;2023-06-26T14:53:24;5.10;;;2.28;;
38715;SDS011;24833;49.324;8.694;2023-06-26T14:55:51;2.80;;;1.80;;
38715;SDS011;24833;49.324;8.694;2023-06-26T14:58:18;3.05;;;1.90;;
38715;SDS011;24833;49.324;8.694;2023-06-26T15:00:45;4.40;;;1.50;;
38715;SDS011;24833;49.324;8.694;2023-06-26T15:03:12;4.70;;;1.73;;
38715;SDS011;24833;49.324;8.694;2023-06-26T15:05:39;1.55;;;1.30;;
38715;SDS011;24833;49.324;8.694;2023-06-26T15:08:07;2.22;;;1.25;;
38715;SDS011;24833;49.324;8.694;2023-06-26T15:10:35;2.30;;;1.63;;
38715;SDS011;24833;49.324;8.694;2023-06-26T15:13:02;1.80;;;1.23;;
38715;SDS011;24833;49.324;8.694;2023-06-26T15:15:29;1.70;;;1.40;;
38715;SDS011;24833;49.324;8.694;2023-06-26T15:17:56;3.85;;;1.50;;
38715;SDS011;24833;49.324;8.694;2023-06-26T15:20:23;2.03;;;1.30;;